sensor_id;sensor_type;location;lat;lon;timestamp;P1;durP1;ratioP1;P2;durP2;ratioP2
6723;SDS011;3399;52.530;13.304;2023-04-06T00:01:25;7.97;;;4.33;;
6723;SDS011;3399;52.530;13.304;2023-04-06T00:03:50;5.57;;;4.77;;
6723;SDS011;3399;52.530;13.304;2023-04-06T00:06:16;8.73;;;5.10;;
6723;SDS011;3399;52.530;13.304;2023-04-06T00:08:42;6.43;;;4.93;;
6723;SDS011;3399;52.530;13.304;2023-04-06T00:11:08;5.83;;;5.23;;
6723;SDS011;3399;52.530;13.304;2023-04-06T00:13:33;5.57;;;4.47;;
6723;SDS011;3399;52.530;13.304;2023-04-06T00:15:59;7.30;;;4.13;;
6723;SDS011;3399;52.530;13.304;2023-04-06T00:18:24;4.93;;;4.20;;
6723;SDS011;3399;52.530;13.304;2023-04-06T00:20:50;7.20;;;4.93;;
6723;SDS011;3399;52.530;13.304;2023-04-06T00:23:16;8.77;;;4.37;;
6723;SDS011;3399;52.530;13.304;2023-04-06T00:25:41;6.63;;;4.03;;
6723;SDS011;3399;52.530;13.304;2023-04-06T00:28:07;8.67;;;4.00;;
6723;SDS011;3399;52.530;13.304;2023-04-06T00:30:32;5.80;;;3.90;;
6723;SDS011;3399;52.530;13.304;2023-04-06T00:32:58;7.13;;;4.40;;
6723;SDS011;3399;52.530;13.304;2023-04-06T00:35:23;5.47;;;4.20;;
6723;SDS011;3399;52.530;13.304;2023-04-06T00:37:49;6.10;;;4.40;;
6723;SDS011;3399;52.530;13.304;2023-04-06T00:40:15;6.03;;;5.13;;
6723;SDS011;3399;52.530;13.304;2023-04-06T00:42:41;6.30;;;4.80;;
6723;SDS011;3399;52.530;13.304;2023-04-06T00:45:07;5.23;;;4.73;;
6723;SDS011;3399;52.530;13.304;2023-04-06T00:47:33;7.57;;;4.83;;
6723;SDS011;3399;52.530;13.304;2023-04-06T00:49:58;5.63;;;4.93;;
6723;SDS011;3399;52.530;13.304;2023-04-06T00:52:24;5.83;;;5.23;;
6723;SDS011;3399;52.530;13.304;2023-04-06T00:54:50;6.17;;;5.20;;
6723;SDS011;3399;52.530;13.304;2023-04-06T00:57:16;8.83;;;4.17;;
6723;SDS011;3399;52.530;13.304;2023-04-06T00:59:41;4.63;;;4.13;;
6723;SDS011;3399;52.530;13.304;2023-04-06T01:02:08;5.70;;;5.10;;
6723;SDS011;3399;52.530;13.304;2023-04-06T01:04:34;6.93;;;4.70;;
6723;SDS011;3399;52.530;13.304;2023-04-06T01:06:59;6.90;;;4.27;;
6723;SDS011;3399;52.530;13.304;2023-04-06T01:09:27;4.83;;;4.13;;
6723;SDS011;3399;52.530;13.304;2023-04-06T01:11:54;5.43;;;4.53;;
6723;SDS011;3399;52.530;13.304;2023-04-06T01:14:21;7.60;;;4.83;;
6723;SDS011;3399;52.530;13.304;2023-04-06T01:16:46;5.80;;;4.80;;
6723;SDS011;3399;52.530;13.304;2023-04-06T01:19:12;5.93;;;4.83;;
6723;SDS011;3399;52.530;13.304;2023-04-06T01:21:39;5.37;;;4.40;;
6723;SDS011;3399;52.530;13.304;2023-04-06T01:31:54;7.80;;;4.40;;
6723;SDS011;3399;52.530;13.304;2023-04-06T01:34:20;4.70;;;3.97;;
6723;SDS011;3399;52.530;13.304;2023-04-06T01:36:45;4.70;;;4.30;;
6723;SDS011;3399;52.530;13.304;2023-04-06T01:39:11;4.70;;;4.23;;
6723;SDS011;3399;52.530;13.304;2023-04-06T01:41:36;7.60;;;4.57;;
6723;SDS011;3399;52.530;13.304;2023-04-06T01:44:02;4.53;;;4.13;;
6723;SDS011;3399;52.530;13.304;2023-04-06T01:46:28;5.47;;;4.17;;
6723;SDS011;3399;52.530;13.304;2023-04-06T01:48:53;5.07;;;4.53;;
6723;SDS011;3399;52.530;13.304;2023-04-06T01:51:19;5.17;;;4.23;;
6723;SDS011;3399;52.530;13.304;2023-04-06T01:53:44;6.00;;;4.43;;
6723;SDS011;3399;52.530;13.304;2023-04-06T01:56:09;5.30;;;4.77;;
6723;SDS011;3399;52.530;13.304;2023-04-06T01:58:35;4.00;;;3.30;;
6723;SDS011;3399;52.530;13.304;2023-04-06T02:01:00;5.33;;;3.90;;
6723;SDS011;3399;52.530;13.304;2023-04-06T02:03:26;6.63;;;4.50;;
6723;SDS011;3399;52.530;13.304;2023-04-06T02:05:51;5.90;;;4.73;;
6723;SDS011;3399;52.530;13.304;2023-04-06T02:08:17;9.10;;;4.70;;
6723;SDS011;3399;52.530;13.304;2023-04-06T02:10:42;5.40;;;4.27;;
6723;SDS011;3399;52.530;13.304;2023-04-06T02:13:08;4.13;;;3.70;;
6723;SDS011;3399;52.530;13.304;2023-04-06T02:15:33;6.73;;;4.53;;
6723;SDS011;3399;52.530;13.304;2023-04-06T02:17:59;8.70;;;4.93;;
6723;SDS011;3399;52.530;13.304;2023-04-06T02:20:25;10.03;;;4.20;;
6723;SDS011;3399;52.530;13.304;2023-04-06T02:22:51;5.27;;;4.50;;
6723;SDS011;3399;52.530;13.304;2023-04-06T02:25:16;6.27;;;4.77;;
6723;SDS011;3399;52.530;13.304;2023-04-06T02:27:42;4.37;;;3.90;;
6723;SDS011;3399;52.530;13.304;2023-04-06T02:30:07;6.93;;;5.27;;
6723;SDS011;3399;52.530;13.304;2023-04-06T02:32:33;8.90;;;4.90;;
6723;SDS011;3399;52.530;13.304;2023-04-06T02:34:59;7.23;;;4.83;;
6723;SDS011;3399;52.530;13.304;2023-04-06T02:37:25;4.83;;;4.33;;
6723;SDS011;3399;52.530;13.304;2023-04-06T02:39:50;4.57;;;4.00;;
6723;SDS011;3399;52.530;13.304;2023-04-06T02:42:16;8.80;;;5.00;;
6723;SDS011;3399;52.530;13.304;2023-04-06T02:44:42;8.07;;;4.47;;
6723;SDS011;3399;52.530;13.304;2023-04-06T02:47:08;6.03;;;5.07;;
6723;SDS011;3399;52.530;13.304;2023-04-06T02:49:33;4.20;;;3.77;;
6723;SDS011;3399;52.530;13.304;2023-04-06T02:51:59;5.57;;;4.57;;
6723;SDS011;3399;52.530;13.304;2023-04-06T02:54:25;4.87;;;4.40;;
6723;SDS011;3399;52.530;13.304;2023-04-06T02:56:50;6.50;;;5.43;;
6723;SDS011;3399;52.530;13.304;2023-04-06T02:59:16;8.43;;;5.13;;
6723;SDS011;3399;52.530;13.304;2023-04-06T03:01:41;5.77;;;4.60;;
6723;SDS011;3399;52.530;13.304;2023-04-06T03:04:07;9.20;;;5.13;;
6723;SDS011;3399;52.530;13.304;2023-04-06T03:06:32;7.37;;;4.67;;
6723;SDS011;3399;52.530;13.304;2023-04-06T03:08:58;6.97;;;4.90;;
6723;SDS011;3399;52.530;13.304;2023-04-06T03:11:23;8.83;;;5.10;;
6723;SDS011;3399;52.530;13.304;2023-04-06T03:13:49;7.23;;;5.13;;
6723;SDS011;3399;52.530;13.304;2023-04-06T03:16:14;5.80;;;4.83;;
6723;SDS011;3399;52.530;13.304;2023-04-06T03:18:40;7.70;;;4.43;;
6723;SDS011;3399;52.530;13.304;2023-04-06T03:21:05;8.07;;;5.13;;
6723;SDS011;3399;52.530;13.304;2023-04-06T03:23:31;7.23;;;4.97;;
6723;SDS011;3399;52.530;13.304;2023-04-06T03:25:56;7.63;;;4.80;;
6723;SDS011;3399;52.530;13.304;2023-04-06T03:28:22;10.17;;;5.07;;
6723;SDS011;3399;52.530;13.304;2023-04-06T03:30:47;5.30;;;4.80;;
6723;SDS011;3399;52.530;13.304;2023-04-06T03:33:13;7.87;;;5.13;;
6723;SDS011;3399;52.530;13.304;2023-04-06T03:35:39;6.83;;;4.40;;
6723;SDS011;3399;52.530;13.304;2023-04-06T03:38:04;5.73;;;4.70;;
6723;SDS011;3399;52.530;13.304;2023-04-06T03:40:30;5.97;;;5.13;;
6723;SDS011;3399;52.530;13.304;2023-04-06T03:42:56;5.23;;;4.63;;
6723;SDS011;3399;52.530;13.304;2023-04-06T03:45:21;7.17;;;5.03;;
6723;SDS011;3399;52.530;13.304;2023-04-06T03:47:47;5.97;;;4.57;;
6723;SDS011;3399;52.530;13.304;2023-04-06T03:50:12;5.97;;;4.90;;
6723;SDS011;3399;52.530;13.304;2023-04-06T03:52:38;5.87;;;4.90;;
6723;SDS011;3399;52.530;13.304;2023-04-06T03:55:04;5.83;;;4.47;;
6723;SDS011;3399;52.530;13.304;2023-04-06T03:57:30;8.13;;;4.77;;
6723;SDS011;3399;52.530;13.304;2023-04-06T03:59:55;8.70;;;5.07;;
6723;SDS011;3399;52.530;13.304;2023-04-06T04:02:21;7.50;;;4.60;;
6723;SDS011;3399;52.530;13.304;2023-04-06T04:04:46;8.03;;;4.70;;
6723;SDS011;3399;52.530;13.304;2023-04-06T04:07:12;4.93;;;4.43;;
6723;SDS011;3399;52.530;13.304;2023-04-06T04:09:37;7.63;;;5.67;;
6723;SDS011;3399;52.530;13.304;2023-04-06T04:12:03;7.87;;;5.70;;
6723;SDS011;3399;52.530;13.304;2023-04-06T04:14:28;8.07;;;5.03;;
6723;SDS011;3399;52.530;13.304;2023-04-06T04:16:54;6.27;;;4.80;;
6723;SDS011;3399;52.530;13.304;2023-04-06T04:19:19;13.97;;;5.53;;
6723;SDS011;3399;52.530;13.304;2023-04-06T04:21:45;5.50;;;5.00;;
6723;SDS011;3399;52.530;13.304;2023-04-06T04:24:11;6.30;;;5.60;;
6723;SDS011;3399;52.530;13.304;2023-04-06T04:26:37;6.60;;;5.30;;
6723;SDS011;3399;52.530;13.304;2023-04-06T04:29:03;8.30;;;4.90;;
6723;SDS011;3399;52.530;13.304;2023-04-06T04:31:29;7.83;;;5.50;;
6723;SDS011;3399;52.530;13.304;2023-04-06T04:33:55;7.17;;;5.33;;
6723;SDS011;3399;52.530;13.304;2023-04-06T04:36:20;8.13;;;5.63;;
6723;SDS011;3399;52.530;13.304;2023-04-06T04:38:46;5.67;;;4.80;;
6723;SDS011;3399;52.530;13.304;2023-04-06T04:41:11;7.37;;;5.37;;
6723;SDS011;3399;52.530;13.304;2023-04-06T04:43:37;7.97;;;5.30;;
6723;SDS011;3399;52.530;13.304;2023-04-06T04:46:03;8.17;;;6.10;;
6723;SDS011;3399;52.530;13.304;2023-04-06T04:48:29;9.47;;;6.00;;
6723;SDS011;3399;52.530;13.304;2023-04-06T04:50:55;7.50;;;5.53;;
6723;SDS011;3399;52.530;13.304;2023-04-06T04:53:20;9.73;;;6.20;;
6723;SDS011;3399;52.530;13.304;2023-04-06T04:55:46;6.93;;;5.47;;
6723;SDS011;3399;52.530;13.304;2023-04-06T04:58:12;7.63;;;6.20;;
6723;SDS011;3399;52.530;13.304;2023-04-06T05:00:41;7.27;;;5.83;;
6723;SDS011;3399;52.530;13.304;2023-04-06T05:03:07;8.50;;;6.30;;
6723;SDS011;3399;52.530;13.304;2023-04-06T05:05:33;7.10;;;6.10;;
6723;SDS011;3399;52.530;13.304;2023-04-06T05:07:58;7.93;;;5.60;;
6723;SDS011;3399;52.530;13.304;2023-04-06T05:10:24;10.73;;;6.67;;
6723;SDS011;3399;52.530;13.304;2023-04-06T05:12:49;7.77;;;6.97;;
6723;SDS011;3399;52.530;13.304;2023-04-06T05:15:15;7.30;;;6.47;;
6723;SDS011;3399;52.530;13.304;2023-04-06T05:17:41;8.00;;;5.93;;
6723;SDS011;3399;52.530;13.304;2023-04-06T05:20:06;7.57;;;6.47;;
6723;SDS011;3399;52.530;13.304;2023-04-06T05:22:32;8.80;;;6.30;;
6723;SDS011;3399;52.530;13.304;2023-04-06T05:24:57;10.60;;;7.10;;
6723;SDS011;3399;52.530;13.304;2023-04-06T05:27:23;9.30;;;7.13;;
6723;SDS011;3399;52.530;13.304;2023-04-06T05:29:48;7.07;;;6.37;;
6723;SDS011;3399;52.530;13.304;2023-04-06T05:32:14;9.90;;;6.40;;
6723;SDS011;3399;52.530;13.304;2023-04-06T05:34:39;15.47;;;6.63;;
6723;SDS011;3399;52.530;13.304;2023-04-06T05:37:05;10.07;;;6.77;;
6723;SDS011;3399;52.530;13.304;2023-04-06T05:39:31;9.73;;;7.37;;
6723;SDS011;3399;52.530;13.304;2023-04-06T05:41:56;8.47;;;7.10;;
6723;SDS011;3399;52.530;13.304;2023-04-06T05:44:22;6.57;;;5.97;;
6723;SDS011;3399;52.530;13.304;2023-04-06T05:46:47;8.80;;;6.60;;
6723;SDS011;3399;52.530;13.304;2023-04-06T05:49:12;8.37;;;7.27;;
6723;SDS011;3399;52.530;13.304;2023-04-06T05:51:38;9.97;;;6.60;;
6723;SDS011;3399;52.530;13.304;2023-04-06T05:54:04;7.70;;;6.93;;
6723;SDS011;3399;52.530;13.304;2023-04-06T05:56:29;12.50;;;7.07;;
6723;SDS011;3399;52.530;13.304;2023-04-06T05:58:56;8.67;;;7.13;;
6723;SDS011;3399;52.530;13.304;2023-04-06T06:01:22;12.43;;;7.20;;
6723;SDS011;3399;52.530;13.304;2023-04-06T06:03:47;11.40;;;7.37;;
6723;SDS011;3399;52.530;13.304;2023-04-06T06:06:13;10.13;;;6.93;;
6723;SDS011;3399;52.530;13.304;2023-04-06T06:08:38;11.93;;;7.00;;
6723;SDS011;3399;52.530;13.304;2023-04-06T06:11:04;7.93;;;6.70;;
6723;SDS011;3399;52.530;13.304;2023-04-06T06:13:29;8.57;;;7.67;;
6723;SDS011;3399;52.530;13.304;2023-04-06T06:15:55;10.33;;;7.43;;
6723;SDS011;3399;52.530;13.304;2023-04-06T06:18:20;7.70;;;6.73;;
6723;SDS011;3399;52.530;13.304;2023-04-06T06:20:46;8.13;;;7.27;;
6723;SDS011;3399;52.530;13.304;2023-04-06T06:23:12;9.03;;;8.00;;
6723;SDS011;3399;52.530;13.304;2023-04-06T06:25:37;8.53;;;7.63;;
6723;SDS011;3399;52.530;13.304;2023-04-06T06:28:02;12.77;;;7.57;;
6723;SDS011;3399;52.530;13.304;2023-04-06T06:30:28;10.23;;;8.10;;
6723;SDS011;3399;52.530;13.304;2023-04-06T06:32:53;12.83;;;8.13;;
6723;SDS011;3399;52.530;13.304;2023-04-06T06:35:19;8.57;;;7.00;;
6723;SDS011;3399;52.530;13.304;2023-04-06T06:37:45;9.47;;;7.13;;
6723;SDS011;3399;52.530;13.304;2023-04-06T06:40:10;9.27;;;8.23;;
6723;SDS011;3399;52.530;13.304;2023-04-06T06:42:38;8.80;;;7.07;;
6723;SDS011;3399;52.530;13.304;2023-04-06T06:45:04;8.53;;;7.50;;
6723;SDS011;3399;52.530;13.304;2023-04-06T06:47:30;8.67;;;7.27;;
6723;SDS011;3399;52.530;13.304;2023-04-06T06:49:55;8.63;;;6.33;;
6723;SDS011;3399;52.530;13.304;2023-04-06T06:52:21;9.63;;;6.90;;
6723;SDS011;3399;52.530;13.304;2023-04-06T06:54:48;15.50;;;7.07;;
6723;SDS011;3399;52.530;13.304;2023-04-06T06:57:13;8.37;;;7.13;;
6723;SDS011;3399;52.530;13.304;2023-04-06T06:59:38;7.60;;;6.07;;
6723;SDS011;3399;52.530;13.304;2023-04-06T07:02:04;8.60;;;6.30;;
6723;SDS011;3399;52.530;13.304;2023-04-06T07:04:30;10.00;;;7.03;;
6723;SDS011;3399;52.530;13.304;2023-04-06T07:06:55;7.77;;;6.10;;
6723;SDS011;3399;52.530;13.304;2023-04-06T07:09:21;13.30;;;6.37;;
6723;SDS011;3399;52.530;13.304;2023-04-06T07:11:46;7.20;;;6.37;;
6723;SDS011;3399;52.530;13.304;2023-04-06T07:14:14;7.80;;;6.83;;
6723;SDS011;3399;52.530;13.304;2023-04-06T07:16:40;9.30;;;6.37;;
6723;SDS011;3399;52.530;13.304;2023-04-06T07:19:06;7.83;;;5.97;;
6723;SDS011;3399;52.530;13.304;2023-04-06T07:21:31;9.07;;;5.93;;
6723;SDS011;3399;52.530;13.304;2023-04-06T07:23:57;7.17;;;5.37;;
6723;SDS011;3399;52.530;13.304;2023-04-06T07:26:22;5.73;;;5.07;;
6723;SDS011;3399;52.530;13.304;2023-04-06T07:28:48;7.53;;;5.07;;
6723;SDS011;3399;52.530;13.304;2023-04-06T07:31:13;7.17;;;4.60;;
6723;SDS011;3399;52.530;13.304;2023-04-06T07:33:39;5.40;;;4.87;;
6723;SDS011;3399;52.530;13.304;2023-04-06T07:36:04;6.00;;;5.33;;
6723;SDS011;3399;52.530;13.304;2023-04-06T07:38:30;8.00;;;5.30;;
6723;SDS011;3399;52.530;13.304;2023-04-06T07:40:55;6.57;;;4.60;;
6723;SDS011;3399;52.530;13.304;2023-04-06T07:43:21;5.57;;;3.67;;
6723;SDS011;3399;52.530;13.304;2023-04-06T07:45:47;7.17;;;4.43;;
6723;SDS011;3399;52.530;13.304;2023-04-06T07:48:13;6.77;;;5.00;;
6723;SDS011;3399;52.530;13.304;2023-04-06T07:50:38;4.13;;;3.63;;
6723;SDS011;3399;52.530;13.304;2023-04-06T07:53:04;5.73;;;4.07;;
6723;SDS011;3399;52.530;13.304;2023-04-06T07:55:29;7.07;;;4.80;;
6723;SDS011;3399;52.530;13.304;2023-04-06T07:57:55;6.17;;;4.17;;
6723;SDS011;3399;52.530;13.304;2023-04-06T08:00:21;5.93;;;3.77;;
6723;SDS011;3399;52.530;13.304;2023-04-06T08:02:46;4.33;;;3.93;;
6723;SDS011;3399;52.530;13.304;2023-04-06T08:05:12;3.90;;;3.50;;
6723;SDS011;3399;52.530;13.304;2023-04-06T08:07:37;5.70;;;3.83;;
6723;SDS011;3399;52.530;13.304;2023-04-06T08:10:03;5.07;;;3.97;;
6723;SDS011;3399;52.530;13.304;2023-04-06T08:12:29;6.07;;;4.60;;
6723;SDS011;3399;52.530;13.304;2023-04-06T08:14:55;9.80;;;3.73;;
6723;SDS011;3399;52.530;13.304;2023-04-06T08:17:21;3.53;;;3.23;;
6723;SDS011;3399;52.530;13.304;2023-04-06T08:19:47;6.17;;;3.93;;
6723;SDS011;3399;52.530;13.304;2023-04-06T08:22:12;6.30;;;3.73;;
6723;SDS011;3399;52.530;13.304;2023-04-06T08:24:38;4.80;;;3.23;;
6723;SDS011;3399;52.530;13.304;2023-04-06T08:27:04;3.80;;;3.10;;
6723;SDS011;3399;52.530;13.304;2023-04-06T08:29:29;4.80;;;3.33;;
6723;SDS011;3399;52.530;13.304;2023-04-06T08:31:55;4.80;;;3.03;;
6723;SDS011;3399;52.530;13.304;2023-04-06T08:34:21;2.90;;;2.30;;
6723;SDS011;3399;52.530;13.304;2023-04-06T08:36:47;3.90;;;2.80;;
6723;SDS011;3399;52.530;13.304;2023-04-06T08:39:13;5.53;;;2.97;;
6723;SDS011;3399;52.530;13.304;2023-04-06T08:41:41;3.70;;;3.17;;
6723;SDS011;3399;52.530;13.304;2023-04-06T08:44:07;5.30;;;2.50;;
6723;SDS011;3399;52.530;13.304;2023-04-06T08:46:33;3.90;;;2.93;;
6723;SDS011;3399;52.530;13.304;2023-04-06T08:49:00;3.07;;;2.80;;
6723;SDS011;3399;52.530;13.304;2023-04-06T08:51:26;2.87;;;2.57;;
6723;SDS011;3399;52.530;13.304;2023-04-06T08:53:55;3.53;;;3.23;;
6723;SDS011;3399;52.530;13.304;2023-04-06T08:56:22;3.67;;;2.70;;
6723;SDS011;3399;52.530;13.304;2023-04-06T08:58:48;3.97;;;2.53;;
6723;SDS011;3399;52.530;13.304;2023-04-06T09:01:14;3.70;;;2.77;;
6723;SDS011;3399;52.530;13.304;2023-04-06T09:03:42;4.00;;;3.60;;
6723;SDS011;3399;52.530;13.304;2023-04-06T09:06:08;4.03;;;3.07;;
6723;SDS011;3399;52.530;13.304;2023-04-06T09:08:34;3.20;;;2.43;;
6723;SDS011;3399;52.530;13.304;2023-04-06T09:11:01;4.17;;;2.17;;
6723;SDS011;3399;52.530;13.304;2023-04-06T09:13:27;3.43;;;2.60;;
6723;SDS011;3399;52.530;13.304;2023-04-06T09:16:00;3.47;;;2.23;;
6723;SDS011;3399;52.530;13.304;2023-04-06T09:18:27;4.50;;;2.20;;
6723;SDS011;3399;52.530;13.304;2023-04-06T09:20:59;2.37;;;2.07;;
6723;SDS011;3399;52.530;13.304;2023-04-06T09:23:26;3.30;;;2.27;;
6723;SDS011;3399;52.530;13.304;2023-04-06T09:25:52;2.73;;;2.53;;
6723;SDS011;3399;52.530;13.304;2023-04-06T09:28:27;2.43;;;2.23;;
6723;SDS011;3399;52.530;13.304;2023-04-06T09:30:53;2.87;;;2.50;;
6723;SDS011;3399;52.530;13.304;2023-04-06T09:33:22;2.03;;;1.87;;
6723;SDS011;3399;52.530;13.304;2023-04-06T09:35:51;4.83;;;2.30;;
6723;SDS011;3399;52.530;13.304;2023-04-06T09:38:17;2.87;;;2.57;;
6723;SDS011;3399;52.530;13.304;2023-04-06T09:40:51;4.40;;;2.77;;
6723;SDS011;3399;52.530;13.304;2023-04-06T09:43:24;3.00;;;2.23;;
6723;SDS011;3399;52.530;13.304;2023-04-06T09:45:51;2.77;;;2.27;;
6723;SDS011;3399;52.530;13.304;2023-04-06T09:48:18;4.23;;;2.50;;
6723;SDS011;3399;52.530;13.304;2023-04-06T09:50:45;3.63;;;2.30;;
6723;SDS011;3399;52.530;13.304;2023-04-06T09:53:11;4.30;;;2.37;;
6723;SDS011;3399;52.530;13.304;2023-04-06T09:55:40;2.30;;;2.10;;
6723;SDS011;3399;52.530;13.304;2023-04-06T09:58:12;3.13;;;2.07;;
6723;SDS011;3399;52.530;13.304;2023-04-06T10:00:43;5.07;;;2.40;;
6723;SDS011;3399;52.530;13.304;2023-04-06T10:03:26;3.23;;;2.47;;
6723;SDS011;3399;52.530;13.304;2023-04-06T10:06:11;9.47;;;2.70;;
6723;SDS011;3399;52.530;13.304;2023-04-06T10:08:38;3.10;;;1.83;;
6723;SDS011;3399;52.530;13.304;2023-04-06T10:11:06;2.43;;;2.10;;
6723;SDS011;3399;52.530;13.304;2023-04-06T10:13:32;2.60;;;2.30;;
6723;SDS011;3399;52.530;13.304;2023-04-06T10:15:59;1.97;;;1.80;;
6723;SDS011;3399;52.530;13.304;2023-04-06T10:18:26;3.10;;;2.80;;
6723;SDS011;3399;52.530;13.304;2023-04-06T10:20:56;5.03;;;2.97;;
6723;SDS011;3399;52.530;13.304;2023-04-06T10:23:36;2.87;;;2.00;;
6723;SDS011;3399;52.530;13.304;2023-04-06T10:26:13;3.87;;;2.10;;
6723;SDS011;3399;52.530;13.304;2023-04-06T10:28:41;4.17;;;2.40;;
6723;SDS011;3399;52.530;13.304;2023-04-06T10:31:08;2.90;;;2.20;;
6723;SDS011;3399;52.530;13.304;2023-04-06T10:33:33;2.10;;;1.87;;
6723;SDS011;3399;52.530;13.304;2023-04-06T10:36:09;3.43;;;2.40;;
6723;SDS011;3399;52.530;13.304;2023-04-06T10:38:39;3.30;;;1.93;;
6723;SDS011;3399;52.530;13.304;2023-04-06T10:41:06;3.20;;;1.73;;
6723;SDS011;3399;52.530;13.304;2023-04-06T10:43:34;2.20;;;2.00;;
6723;SDS011;3399;52.530;13.304;2023-04-06T10:46:01;3.67;;;2.47;;
6723;SDS011;3399;52.530;13.304;2023-04-06T10:48:40;4.33;;;2.40;;
6723;SDS011;3399;52.530;13.304;2023-04-06T10:51:08;2.67;;;2.03;;
6723;SDS011;3399;52.530;13.304;2023-04-06T10:53:35;3.20;;;1.97;;
6723;SDS011;3399;52.530;13.304;2023-04-06T10:56:01;3.17;;;2.60;;
6723;SDS011;3399;52.530;13.304;2023-04-06T10:58:28;5.13;;;2.37;;
6723;SDS011;3399;52.530;13.304;2023-04-06T11:00:55;6.03;;;2.90;;
6723;SDS011;3399;52.530;13.304;2023-04-06T11:03:21;2.97;;;2.00;;
6723;SDS011;3399;52.530;13.304;2023-04-06T11:05:47;5.07;;;3.33;;
6723;SDS011;3399;52.530;13.304;2023-04-06T11:08:24;4.63;;;3.13;;
6723;SDS011;3399;52.530;13.304;2023-04-06T11:11:03;3.40;;;2.73;;
6723;SDS011;3399;52.530;13.304;2023-04-06T11:13:43;7.17;;;2.37;;
6723;SDS011;3399;52.530;13.304;2023-04-06T11:16:47;4.00;;;2.53;;
6723;SDS011;3399;52.530;13.304;2023-04-06T11:19:06;7.23;;;3.40;;
6723;SDS011;3399;52.530;13.304;2023-04-06T11:21:45;2.50;;;2.13;;
6723;SDS011;3399;52.530;13.304;2023-04-06T11:24:19;4.13;;;2.73;;
6723;SDS011;3399;52.530;13.304;2023-04-06T11:26:52;2.40;;;2.20;;
6723;SDS011;3399;52.530;13.304;2023-04-06T11:29:22;4.13;;;2.37;;
6723;SDS011;3399;52.530;13.304;2023-04-06T11:34:32;4.30;;;2.60;;
6723;SDS011;3399;52.530;13.304;2023-04-06T11:37:08;2.60;;;2.40;;
6723;SDS011;3399;52.530;13.304;2023-04-06T11:39:38;5.60;;;3.00;;
6723;SDS011;3399;52.530;13.304;2023-04-06T11:42:05;2.63;;;2.40;;
6723;SDS011;3399;52.530;13.304;2023-04-06T11:44:35;3.20;;;2.90;;
6723;SDS011;3399;52.530;13.304;2023-04-06T11:47:02;2.90;;;2.47;;
6723;SDS011;3399;52.530;13.304;2023-04-06T11:49:29;2.07;;;1.97;;
6723;SDS011;3399;52.530;13.304;2023-04-06T11:51:56;2.33;;;2.13;;
6723;SDS011;3399;52.530;13.304;2023-04-06T11:54:36;2.23;;;1.83;;
6723;SDS011;3399;52.530;13.304;2023-04-06T11:57:05;4.33;;;2.43;;
6723;SDS011;3399;52.530;13.304;2023-04-06T11:59:31;3.33;;;2.47;;
6723;SDS011;3399;52.530;13.304;2023-04-06T12:01:57;2.50;;;2.40;;
6723;SDS011;3399;52.530;13.304;2023-04-06T12:04:23;4.53;;;2.97;;
6723;SDS011;3399;52.530;13.304;2023-04-06T12:06:48;3.87;;;2.73;;
6723;SDS011;3399;52.530;13.304;2023-04-06T12:09:14;4.07;;;2.63;;
6723;SDS011;3399;52.530;13.304;2023-04-06T12:11:42;2.43;;;2.27;;
6723;SDS011;3399;52.530;13.304;2023-04-06T12:14:08;3.40;;;3.03;;
6723;SDS011;3399;52.530;13.304;2023-04-06T12:16:34;2.83;;;2.63;;
6723;SDS011;3399;52.530;13.304;2023-04-06T12:18:59;3.70;;;2.60;;
6723;SDS011;3399;52.530;13.304;2023-04-06T12:21:29;2.40;;;2.20;;
6723;SDS011;3399;52.530;13.304;2023-04-06T12:23:56;2.60;;;2.40;;
6723;SDS011;3399;52.530;13.304;2023-04-06T12:26:23;3.40;;;3.10;;
6723;SDS011;3399;52.530;13.304;2023-04-06T12:28:49;2.93;;;2.50;;
6723;SDS011;3399;52.530;13.304;2023-04-06T12:31:19;3.93;;;2.87;;
6723;SDS011;3399;52.530;13.304;2023-04-06T12:33:46;3.60;;;3.30;;
6723;SDS011;3399;52.530;13.304;2023-04-06T12:36:13;4.67;;;2.80;;
6723;SDS011;3399;52.530;13.304;2023-04-06T12:38:40;3.10;;;2.40;;
6723;SDS011;3399;52.530;13.304;2023-04-06T12:41:06;3.40;;;2.87;;
6723;SDS011;3399;52.530;13.304;2023-04-06T12:43:32;2.23;;;2.03;;
6723;SDS011;3399;52.530;13.304;2023-04-06T12:45:58;2.47;;;2.27;;
6723;SDS011;3399;52.530;13.304;2023-04-06T12:48:24;2.60;;;2.40;;
6723;SDS011;3399;52.530;13.304;2023-04-06T12:51:00;2.60;;;2.40;;
6723;SDS011;3399;52.530;13.304;2023-04-06T12:53:27;3.20;;;3.00;;
6723;SDS011;3399;52.530;13.304;2023-04-06T12:55:53;3.00;;;2.40;;
6723;SDS011;3399;52.530;13.304;2023-04-06T12:58:20;3.20;;;2.97;;
6723;SDS011;3399;52.530;13.304;2023-04-06T13:00:46;3.07;;;2.77;;
6723;SDS011;3399;52.530;13.304;2023-04-06T13:03:13;2.50;;;2.30;;
6723;SDS011;3399;52.530;13.304;2023-04-06T13:05:44;2.70;;;2.50;;
6723;SDS011;3399;52.530;13.304;2023-04-06T13:08:11;4.07;;;3.17;;
6723;SDS011;3399;52.530;13.304;2023-04-06T13:10:37;2.50;;;2.40;;
6723;SDS011;3399;52.530;13.304;2023-04-06T13:13:03;2.90;;;2.30;;
6723;SDS011;3399;52.530;13.304;2023-04-06T13:15:28;3.20;;;3.00;;
6723;SDS011;3399;52.530;13.304;2023-04-06T13:17:54;3.00;;;2.80;;
6723;SDS011;3399;52.530;13.304;2023-04-06T13:20:20;2.57;;;2.33;;
6723;SDS011;3399;52.530;13.304;2023-04-06T13:22:45;3.03;;;2.83;;
6723;SDS011;3399;52.530;13.304;2023-04-06T13:25:11;2.90;;;2.70;;
6723;SDS011;3399;52.530;13.304;2023-04-06T13:27:36;2.90;;;2.70;;
6723;SDS011;3399;52.530;13.304;2023-04-06T13:30:03;2.97;;;2.73;;
6723;SDS011;3399;52.530;13.304;2023-04-06T13:32:29;2.80;;;2.60;;
6723;SDS011;3399;52.530;13.304;2023-04-06T13:34:55;3.03;;;2.60;;
6723;SDS011;3399;52.530;13.304;2023-04-06T13:37:21;3.00;;;2.73;;
6723;SDS011;3399;52.530;13.304;2023-04-06T13:39:47;4.27;;;3.30;;
6723;SDS011;3399;52.530;13.304;2023-04-06T13:42:12;3.47;;;2.47;;
6723;SDS011;3399;52.530;13.304;2023-04-06T13:44:38;3.17;;;2.87;;
6723;SDS011;3399;52.530;13.304;2023-04-06T13:47:03;3.80;;;2.87;;
6723;SDS011;3399;52.530;13.304;2023-04-06T13:49:29;3.53;;;3.13;;
6723;SDS011;3399;52.530;13.304;2023-04-06T13:51:55;3.20;;;2.90;;
6723;SDS011;3399;52.530;13.304;2023-04-06T13:54:20;3.20;;;2.90;;
6723;SDS011;3399;52.530;13.304;2023-04-06T13:56:46;3.47;;;3.28;;
6723;SDS011;3399;52.530;13.304;2023-04-06T13:59:12;6.87;;;3.13;;
6723;SDS011;3399;52.530;13.304;2023-04-06T14:01:37;3.35;;;3.05;;
6723;SDS011;3399;52.530;13.304;2023-04-06T14:04:02;3.88;;;3.38;;
6723;SDS011;3399;52.530;13.304;2023-04-06T14:06:28;3.50;;;2.93;;
6723;SDS011;3399;52.530;13.304;2023-04-06T14:08:54;3.33;;;3.03;;
6723;SDS011;3399;52.530;13.304;2023-04-06T14:11:19;5.30;;;3.03;;
6723;SDS011;3399;52.530;13.304;2023-04-06T14:13:45;3.37;;;2.87;;
6723;SDS011;3399;52.530;13.304;2023-04-06T14:16:11;3.53;;;2.93;;
6723;SDS011;3399;52.530;13.304;2023-04-06T14:18:37;5.55;;;3.10;;
6723;SDS011;3399;52.530;13.304;2023-04-06T14:21:03;3.20;;;2.90;;
6723;SDS011;3399;52.530;13.304;2023-04-06T14:23:28;2.90;;;2.70;;
6723;SDS011;3399;52.530;13.304;2023-04-06T14:26:00;3.23;;;3.00;;
6723;SDS011;3399;52.530;13.304;2023-04-06T14:28:28;8.90;;;4.37;;
6723;SDS011;3399;52.530;13.304;2023-04-06T14:30:54;2.57;;;2.43;;
6723;SDS011;3399;52.530;13.304;2023-04-06T14:33:19;3.43;;;2.60;;
6723;SDS011;3399;52.530;13.304;2023-04-06T14:35:44;2.10;;;1.83;;
6723;SDS011;3399;52.530;13.304;2023-04-06T14:38:10;2.47;;;2.20;;
6723;SDS011;3399;52.530;13.304;2023-04-06T14:40:35;4.17;;;2.37;;
6723;SDS011;3399;52.530;13.304;2023-04-06T14:43:01;2.20;;;2.07;;
6723;SDS011;3399;52.530;13.304;2023-04-06T14:45:27;3.00;;;2.70;;
6723;SDS011;3399;52.530;13.304;2023-04-06T14:47:53;2.60;;;2.30;;
6723;SDS011;3399;52.530;13.304;2023-04-06T14:50:18;2.47;;;2.27;;
6723;SDS011;3399;52.530;13.304;2023-04-06T14:52:44;3.33;;;2.00;;
6723;SDS011;3399;52.530;13.304;2023-04-06T14:55:12;2.97;;;2.20;;
6723;SDS011;3399;52.530;13.304;2023-04-06T14:57:38;2.70;;;2.50;;
6723;SDS011;3399;52.530;13.304;2023-04-06T15:00:04;3.07;;;2.77;;
6723;SDS011;3399;52.530;13.304;2023-04-06T15:02:32;4.00;;;2.70;;
6723;SDS011;3399;52.530;13.304;2023-04-06T15:04:58;2.13;;;1.93;;
6723;SDS011;3399;52.530;13.304;2023-04-06T15:07:23;4.37;;;2.83;;